Sturgis, MI

6:48 PM EST on December 03, 2016 (GMT -0500)
Kirsch Municipal | | Change Station

Elev 925 ft 41.82 °N, 85.44 °W | Updated 14 minutes ago

Overcast
Overcast
35 °F
Feels Like 35 °F
N
0
Wind Variable Wind from North

Today
High -- | Low -- °F
--% Chance of Precip.
Yesterday
High -- | Low -- °F
Precip. -- in
Pressure 30.28 in
Visibility 10.0 miles
Clouds Overcast 3000 ft
Dew Point 25 °F
Humidity 68%
Rainfall 0.00 in
Snow Depth Not available.
7:52 AM 5:11 PM
Waxing Crescent, 18% visible
METAR KIRS 032334Z AUTO 00000KT 10SM OVC030 02/M04 A3028 RMK AO2 T00171037
Pressure 30.28 in
Visibility 10.0 miles
Clouds Overcast 3000 ft
Dew Point 25 °F
Humidity 68%
Rainfall 0.00 in
Snow Depth Not available.
7:52 AM 5:11 PM
Waxing Crescent, 18% visible
METAR KIRS 032334Z AUTO 00000KT 10SM OVC030 02/M04 A3028 RMK AO2 T00171037

10-Day Weather Forecast

Almanac

Astronomy

Dec. 03, 2016 Rise Set
Actual Time
Civil Twilight
Nautical Twilight
Astronomical Twilight
Moon
Length of Visible Light
Length of Day
Tomorrow will be .
, % of the Moon is Illuminated

Today's Extremes

State Highs State Lows

Community

WunderPhotos

Upload Photos

1,955,536 photos uploaded!

WunderBlog® & News

Nearby

Air Quality

  Air Quality AQ Index Pollutant
Not available.

Snow Depth

Station Depth Elevation

Earthquake Activity

City Distance Mag. Time & Date
Minimum magnitude displayed is 2.5.

Coastal Water Temperatures

Place Temperature

Stations

Nearby Weather Stations

Station Location Temp. Windchill Dew Point Humidity Wind Precip. Elev Updated Type
                   

Watches & Warnings

There are currently no watches in effect.